Time;durP1;ratioP1;P1;durP2;ratioP2;P2;SDS_P1;SDS_P2;PMS_P1;PMS_P2;Temp;Humidity;BMP_temperature;BMP_pressure;BME280_temperature;BME280_humidity;BME280_pressure;Samples;Min_cycle;Max_cycle;Signal;HPM_P1;HPM_P2
2023/03/15 00:01:06;;;;;;;2.28;1.60;;;;;;;1.72;100.00;101126.25;5090690;28;20020;-65
2023/03/15 00:03:36;;;;;;;4.50;1.10;;;;;;;1.75;100.00;101139.13;5090605;28;20028;-65
2023/03/15 00:06:02;;;;;;;2.53;1.75;;;;;;;1.74;100.00;101134.84;5089186;28;20024;-65
2023/03/15 00:08:28;;;;;;;1.38;0.98;;;;;;;1.72;100.00;101142.03;5090707;28;20036;-65
2023/03/15 00:10:53;;;;;;;1.30;1.10;;;;;;;1.70;100.00;101147.44;5090637;28;20111;-65
2023/03/15 00:13:19;;;;;;;1.65;0.85;;;;;;;1.65;100.00;101125.09;5090446;28;20036;-65
2023/03/15 00:15:47;;;;;;;1.30;0.80;;;;;;;1.64;100.00;101126.91;5090129;28;20044;-65
2023/03/15 00:18:14;;;;;;;3.05;1.30;;;;;;;1.64;100.00;101134.78;5090307;28;20052;-65
2023/03/15 00:20:40;;;;;;;1.35;1.25;;;;;;;1.67;100.00;101125.81;5090477;28;20032;-65
2023/03/15 00:23:05;;;;;;;2.05;0.73;;;;;;;1.69;100.00;101131.78;5090247;28;20028;-65
2023/03/15 00:25:31;;;;;;;0.95;0.90;;;;;;;1.70;100.00;101130.78;5070897;28;20109;-65
2023/03/15 00:27:56;;;;;;;1.85;1.10;;;;;;;1.71;100.00;101135.09;5070954;28;20032;-65
2023/03/15 00:30:21;;;;;;;1.13;1.00;;;;;;;1.72;100.00;101127.06;5089944;28;20047;-64
2023/03/15 00:32:47;;;;;;;5.05;1.30;;;;;;;1.72;100.00;101127.06;5090120;28;20115;-65
2023/03/15 00:35:12;;;;;;;1.00;1.00;;;;;;;1.73;100.00;101123.50;5090154;28;20494;-65
2023/03/15 00:37:38;;;;;;;1.20;0.90;;;;;;;1.73;100.00;101127.94;5090049;28;20035;-65
2023/03/15 00:40:06;;;;;;;3.88;1.20;;;;;;;1.71;100.00;101122.78;5090014;28;20032;-65
2023/03/15 00:42:32;;;;;;;1.38;1.13;;;;;;;1.70;100.00;101129.03;5089888;28;20641;-66
2023/03/15 00:44:58;;;;;;;1.45;1.05;;;;;;;1.66;100.00;101134.66;5089859;28;20495;-65
2023/03/15 00:47:23;;;;;;;2.50;1.10;;;;;;;1.63;100.00;101140.19;5089946;28;20056;-65
2023/03/15 00:49:49;;;;;;;2.20;1.60;;;;;;;1.58;100.00;101135.31;5089733;28;20399;-64
2023/03/15 00:52:15;;;;;;;2.45;1.15;;;;;;;1.53;100.00;101132.25;5089982;28;20024;-65
2023/03/15 00:54:40;;;;;;;2.13;1.50;;;;;;;1.47;100.00;101130.16;5089802;28;20046;-65
2023/03/15 00:57:06;;;;;;;2.28;1.60;;;;;;;1.47;100.00;101135.41;5089883;28;20138;-65
2023/03/15 00:59:34;;;;;;;2.38;1.45;;;;;;;1.48;100.00;101137.91;5089519;28;20032;-65
2023/03/15 01:02:04;;;;;;;2.80;1.50;;;;;;;1.52;100.00;101147.19;5089676;28;20520;-64
2023/03/15 01:04:30;;;;;;;4.10;2.08;;;;;;;1.55;100.00;101140.84;5089492;28;20035;-65
2023/03/15 01:06:57;;;;;;;2.63;1.55;;;;;;;1.61;100.00;101142.13;5089528;28;20035;-65
2023/03/15 01:09:23;;;;;;;4.85;2.60;;;;;;;1.66;100.00;101146.00;5089397;28;20051;-65
2023/03/15 01:11:48;;;;;;;2.90;1.77;;;;;;;1.71;100.00;101138.56;5089501;28;20070;-65
2023/03/15 01:14:14;;;;;;;3.65;2.22;;;;;;;1.75;100.00;101145.22;5089412;28;20032;-65
2023/03/15 01:16:39;;;;;;;6.30;2.75;;;;;;;1.78;100.00;101149.38;5087868;28;20106;-65
2023/03/15 01:19:04;;;;;;;6.72;2.33;;;;;;;1.85;100.00;101160.22;5088911;28;20047;-65
2023/03/15 01:21:30;;;;;;;4.03;2.10;;;;;;;1.88;100.00;101168.66;5089714;28;20079;-65
2023/03/15 01:23:55;;;;;;;5.72;2.08;;;;;;;1.86;100.00;101167.97;5089420;28;20028;-64
2023/03/15 01:26:21;;;;;;;6.40;3.00;;;;;;;1.91;100.00;101185.97;5089159;28;20485;-65
2023/03/15 01:28:47;;;;;;;3.58;1.75;;;;;;;1.79;100.00;101184.41;5089643;28;20032;-65
2023/03/15 01:31:25;;;;;;;1.83;1.20;;;;;;;1.67;100.00;101194.16;5089235;28;20028;-65
2023/03/15 01:33:51;;;;;;;2.65;1.58;;;;;;;1.44;100.00;101196.09;5089128;28;20555;-65
2023/03/15 01:36:17;;;;;;;2.42;1.10;;;;;;;1.26;100.00;101203.75;5088913;28;20123;-65
2023/03/15 01:38:42;;;;;;;4.72;2.03;;;;;;;1.11;100.00;101200.59;5087675;28;20047;-65
2023/03/15 01:41:09;;;;;;;1.83;1.33;;;;;;;0.95;100.00;101206.25;5089065;28;20031;-65
2023/03/15 01:43:34;;;;;;;1.25;1.10;;;;;;;0.83;100.00;101210.72;5069432;28;20391;-65
2023/03/15 01:46:12;;;;;;;1.42;1.27;;;;;;;0.75;100.00;101201.78;5069995;28;20017;-64
2023/03/15 01:48:44;;;;;;;4.07;1.60;;;;;;;0.67;100.00;101194.53;5088754;28;20044;-65
2023/03/15 01:51:23;;;;;;;2.38;1.60;;;;;;;0.59;100.00;101202.19;5089044;28;20028;-65
2023/03/15 01:54:01;;;;;;;4.50;1.52;;;;;;;0.54;100.00;101199.94;5088798;28;20483;-65
2023/03/15 01:56:30;;;;;;;3.72;1.92;;;;;;;0.54;100.00;101206.97;5069841;28;20357;-65
2023/03/15 01:58:58;;;;;;;3.95;1.23;;;;;;;0.53;100.00;101208.78;5069535;28;20404;-65
2023/03/15 02:01:24;;;;;;;3.53;1.60;;;;;;;0.56;100.00;101210.31;5069866;28;20025;-65
2023/03/15 02:03:57;;;;;;;4.07;1.77;;;;;;;0.56;100.00;101210.31;5069298;28;20032;-65
2023/03/15 02:06:23;;;;;;;2.17;1.58;;;;;;;0.52;100.00;101207.09;5088423;28;20574;-65
2023/03/15 02:08:56;;;;;;;3.63;1.60;;;;;;;0.54;100.00;101210.44;5088835;28;20498;-65
2023/03/15 02:11:23;;;;;;;2.63;1.30;;;;;;;0.59;100.00;101210.91;5088692;28;20035;-65
2023/03/15 02:13:49;;;;;;;1.77;1.20;;;;;;;0.62;100.00;101223.75;5088621;28;20028;-65
2023/03/15 02:16:16;;;;;;;3.03;1.38;;;;;;;0.62;100.00;101218.53;5088459;28;20101;-65
2023/03/15 02:18:42;;;;;;;2.15;1.23;;;;;;;0.63;100.00;101222.00;5088722;28;20043;-65
2023/03/15 02:21:19;;;;;;;3.97;2.50;;;;;;;0.63;100.00;101222.00;5088673;28;20457;-65
2023/03/15 02:23:52;;;;;;;3.53;1.20;;;;;;;0.69;100.00;101224.13;5088812;28;20032;-65
2023/03/15 02:26:27;;;;;;;2.47;1.50;;;;;;;0.73;100.00;101232.56;5088814;28;20310;-65
2023/03/15 02:28:53;;;;;;;3.38;1.38;;;;;;;0.76;100.00;101227.94;5089077;28;20417;-65
2023/03/15 02:31:20;;;;;;;2.55;1.50;;;;;;;0.77;100.00;101224.34;5091188;28;20043;-65
2023/03/15 02:33:49;;;;;;;1.55;1.33;;;;;;;0.76;100.00;101217.44;5092524;28;20047;-65
2023/03/15 02:36:24;;;;;;;2.17;1.65;;;;;;;0.72;100.00;101212.53;5092348;28;20025;-65
2023/03/15 02:38:51;;;;;;;4.07;1.75;;;;;;;0.72;100.00;101216.00;5092178;28;20540;-65
2023/03/15 02:41:20;;;;;;;3.60;2.03;;;;;;;0.63;100.00;101206.25;5092396;28;20571;-65
2023/03/15 02:43:48;;;;;;;2.63;1.58;;;;;;;0.69;100.00;101213.63;5092217;28;20042;-65
2023/03/15 02:46:16;;;;;;;2.65;1.40;;;;;;;0.73;100.00;101228.16;5092366;28;20032;-65
2023/03/15 02:48:43;;;;;;;2.72;1.90;;;;;;;0.79;100.00;101222.44;5092130;28;20024;-65
2023/03/15 02:51:17;;;;;;;3.17;1.63;;;;;;;0.82;100.00;101230.06;5091994;28;20036;-65
2023/03/15 02:53:42;;;;;;;4.13;1.40;;;;;;;0.89;100.00;101235.63;5092192;28;20024;-65
2023/03/15 02:56:08;;;;;;;4.00;1.70;;;;;;;0.92;100.00;101237.16;5091936;28;20032;-65
2023/03/15 02:58:33;;;;;;;2.38;1.55;;;;;;;0.96;100.00;101238.59;5092013;28;20097;-65
2023/03/15 03:00:58;;;;;;;2.72;1.95;;;;;;;0.98;100.00;101244.56;5092046;28;20433;-65
2023/03/15 03:03:24;;;;;;;3.92;1.90;;;;;;;1.00;100.00;101246.13;5084726;28;20063;-65
2023/03/15 03:05:49;;;;;;;6.07;2.65;;;;;;;1.01;100.00;101253.03;5072548;28;20068;-65
2023/03/15 03:08:15;;;;;;;4.07;2.08;;;;;;;1.03;100.00;101243.22;5072386;28;20028;-65
2023/03/15 03:10:40;;;;;;;3.63;1.98;;;;;;;1.04;100.00;101247.50;5072525;28;20028;-65
2023/03/15 03:13:06;;;;;;;7.75;2.88;;;;;;;1.03;100.00;101253.75;5072219;28;20103;-65
2023/03/15 03:15:31;;;;;;;7.70;2.90;;;;;;;1.06;100.00;101261.38;5072553;28;20120;-65
2023/03/15 03:17:56;;;;;;;6.60;2.40;;;;;;;1.07;100.00;101262.19;5072066;28;20075;-65
2023/03/15 03:20:22;;;;;;;4.32;2.22;;;;;;;1.10;100.00;101280.31;5072385;28;20047;-65
2023/03/15 03:22:47;;;;;;;5.43;2.47;;;;;;;1.09;100.00;101276.03;5072152;28;20040;-65
2023/03/15 03:25:13;;;;;;;5.97;2.70;;;;;;;1.10;100.00;101282.94;5072229;28;20036;-65
2023/03/15 03:27:42;;;;;;;28.85;3.63;;;;;;;1.06;100.00;101285.00;5073816;28;20024;-65
2023/03/15 03:30:11;;;;;;;4.68;2.28;;;;;;;1.05;100.00;101295.66;5091539;28;20073;-65
2023/03/15 03:32:36;;;;;;;6.63;2.90;;;;;;;1.03;100.00;101292.31;5091371;28;20037;-65
2023/03/15 03:35:02;;;;;;;6.00;3.28;;;;;;;0.99;100.00;101296.13;5091458;28;20028;-65
2023/03/15 03:37:29;;;;;;;8.82;2.88;;;;;;;0.94;100.00;101299.13;5091275;28;20039;-65
2023/03/15 03:39:55;;;;;;;5.25;3.03;;;;;;;0.87;100.00;101293.53;5091221;28;20356;-65
2023/03/15 03:42:20;;;;;;;6.20;3.35;;;;;;;0.84;100.00;101300.84;5090550;28;20122;-65
2023/03/15 03:44:46;;;;;;;7.22;3.70;;;;;;;0.78;100.00;101312.63;5091315;28;20089;-65
2023/03/15 03:47:11;;;;;;;5.65;2.85;;;;;;;0.73;100.00;101316.56;5071894;28;20035;-65
2023/03/15 03:49:36;;;;;;;8.18;3.55;;;;;;;0.65;100.00;101302.28;5071804;28;20032;-65
2023/03/15 03:52:02;;;;;;;7.35;3.50;;;;;;;0.69;100.00;101316.00;5071584;28;20025;-65
2023/03/15 03:54:27;;;;;;;7.90;4.28;;;;;;;0.68;100.00;101318.72;5071741;28;20499;-65
2023/03/15 03:56:53;;;;;;;11.05;5.55;;;;;;;0.68;100.00;101318.72;5071234;28;20048;-65
2023/03/15 03:59:18;;;;;;;12.15;4.53;;;;;;;0.70;100.00;101328.16;5071554;28;20116;-65
2023/03/15 04:01:44;;;;;;;12.68;5.63;;;;;;;0.69;100.00;101320.41;5071464;28;20060;-65
2023/03/15 04:04:12;;;;;;;14.48;6.63;;;;;;;0.68;100.00;101329.22;5071558;28;20073;-65
2023/03/15 04:06:44;;;;;;;8.90;4.25;;;;;;;0.65;100.00;101331.16;5090682;28;20674;-65
2023/03/15 04:09:13;;;;;;;19.63;7.15;;;;;;;0.64;100.00;101336.53;5090288;28;20454;-69
2023/03/15 04:11:41;;;;;;;13.65;6.20;;;;;;;0.60;100.00;101330.69;5090434;28;20043;-69
2023/03/15 04:14:08;;;;;;;18.83;8.30;;;;;;;0.60;100.00;101341.19;5090525;28;20032;-69
2023/03/15 04:16:33;;;;;;;16.40;7.40;;;;;;;0.62;100.00;101346.28;5090364;28;20042;-69
2023/03/15 04:18:58;;;;;;;16.13;7.45;;;;;;;0.64;100.00;101354.91;5090617;28;20127;-69
2023/03/15 04:21:24;;;;;;;16.20;6.43;;;;;;;0.68;100.00;101348.44;5090355;28;20058;-69
2023/03/15 04:23:49;;;;;;;17.63;8.77;;;;;;;0.58;100.00;101344.88;5090449;28;20028;-69
2023/03/15 04:26:14;;;;;;;23.10;8.95;;;;;;;0.68;100.00;101360.72;5090358;28;20447;-69
2023/03/15 04:28:41;;;;;;;18.05;7.30;;;;;;;0.69;100.00;101368.50;5090149;28;20035;-69
2023/03/15 04:31:09;;;;;;;17.38;8.18;;;;;;;0.65;100.00;101374.94;5090428;28;20020;-69
2023/03/15 04:33:35;;;;;;;15.70;7.03;;;;;;;0.69;100.00;101376.38;5070858;28;20032;-69
2023/03/15 04:36:01;;;;;;;14.95;6.45;;;;;;;0.70;100.00;101378.03;5070545;28;20043;-69
2023/03/15 04:38:27;;;;;;;20.33;6.63;;;;;;;0.73;100.00;101385.66;5070703;28;20507;-69
2023/03/15 04:40:53;;;;;;;14.43;5.45;;;;;;;0.76;100.00;101389.84;5070724;28;20025;-69
2023/03/15 04:43:19;;;;;;;15.65;6.95;;;;;;;0.78;100.00;101387.94;5070695;28;20032;-69
2023/03/15 04:45:44;;;;;;;18.35;8.20;;;;;;;0.76;100.00;101392.47;5070750;28;20062;-69
2023/03/15 04:48:09;;;;;;;17.45;7.32;;;;;;;0.69;100.00;101386.88;5070597;28;20081;-69
2023/03/15 04:50:35;;;;;;;18.20;7.57;;;;;;;0.59;100.00;101389.38;5070495;28;20077;-69
2023/03/15 04:53:00;;;;;;;18.77;8.57;;;;;;;0.61;100.00;101397.13;5068608;28;20040;-69
2023/03/15 04:55:26;;;;;;;15.38;6.15;;;;;;;0.55;100.00;101410.72;5070577;28;20345;-69
2023/03/15 04:57:51;;;;;;;15.32;5.78;;;;;;;0.52;100.00;101393.41;5070231;28;20538;-69
2023/03/15 05:00:17;;;;;;;15.45;6.20;;;;;;;0.48;100.00;101407.72;5070254;28;20507;-69
2023/03/15 05:02:42;;;;;;;16.63;7.35;;;;;;;0.45;100.00;101413.22;5070240;28;20044;-69
2023/03/15 05:05:09;;;;;;;19.77;9.00;;;;;;;0.42;100.00;101411.66;5070192;28;20177;-69
2023/03/15 05:07:35;;;;;;;17.90;7.30;;;;;;;0.38;100.00;101418.09;5070140;28;20020;-69
2023/03/15 05:10:01;;;;;;;18.15;8.32;;;;;;;0.35;100.00;101426.19;5068943;28;20491;-65
2023/03/15 05:12:27;;;;;;;26.13;10.20;;;;;;;0.32;100.00;101429.06;5070084;28;20111;-65
2023/03/15 05:14:52;;;;;;;18.60;8.52;;;;;;;0.29;100.00;101431.06;5070071;28;20065;-65
2023/03/15 05:17:18;;;;;;;19.67;8.10;;;;;;;0.21;100.00;101424.63;5069892;28;20049;-65
2023/03/15 05:19:44;;;;;;;17.05;7.75;;;;;;;0.22;100.00;101428.06;5070045;28;20060;-65
2023/03/15 05:22:10;;;;;;;14.85;7.07;;;;;;;0.20;100.00;101435.22;5069867;28;20711;-65
2023/03/15 05:24:36;;;;;;;15.18;6.93;;;;;;;0.16;100.00;101434.63;5069980;28;20403;-64
2023/03/15 05:27:03;;;;;;;12.25;5.47;;;;;;;0.14;100.00;101441.75;5069984;28;20039;-65
2023/03/15 05:29:28;;;;;;;14.50;7.72;;;;;;;0.07;100.00;101440.53;5069774;28;20028;-65
2023/03/15 05:31:54;;;;;;;14.98;6.32;;;;;;;0.06;100.00;101441.50;5069836;28;20036;-65
2023/03/15 05:34:22;;;;;;;13.90;5.88;;;;;;;0.03;100.00;101438.25;5069821;28;20396;-65
2023/03/15 05:36:50;;;;;;;16.02;6.82;;;;;;;0.00;100.00;101444.59;5076378;28;20021;-65
2023/03/15 05:39:16;;;;;;;15.68;6.70;;;;;;;-0.02;100.00;101452.56;5069553;28;20499;-65
2023/03/15 05:41:41;;;;;;;14.15;5.40;;;;;;;-0.04;100.00;101457.06;5069933;28;20032;-65
2023/03/15 05:44:07;;;;;;;18.85;6.82;;;;;;;-0.06;100.00;101451.09;5068475;28;20036;-65
2023/03/15 05:46:32;;;;;;;17.48;7.38;;;;;;;-0.04;100.00;101453.63;5069816;28;20032;-65
2023/03/15 05:48:57;;;;;;;15.30;6.78;;;;;;;-0.07;100.00;101454.66;5069712;28;20032;-65
2023/03/15 05:51:23;;;;;;;16.30;7.38;;;;;;;-0.03;100.00;101463.13;5069534;28;20111;-65
2023/03/15 05:53:48;;;;;;;18.90;8.32;;;;;;;-0.04;100.00;101467.56;5069824;28;20032;-65
2023/03/15 05:56:14;;;;;;;17.40;7.93;;;;;;;-0.07;100.00;101469.56;5069457;28;20403;-65
2023/03/15 05:58:39;;;;;;;21.50;8.38;;;;;;;-0.06;100.00;101476.47;5069432;28;20115;-65
2023/03/15 06:01:05;;;;;;;16.92;7.25;;;;;;;-0.06;100.00;101474.69;5069720;28;20127;-65
2023/03/15 06:03:30;;;;;;;20.48;8.38;;;;;;;-0.07;100.00;101477.44;5069080;28;20035;-65
2023/03/15 06:05:59;;;;;;;21.27;9.13;;;;;;;-0.08;100.00;101483.59;5072822;28;20017;-65
2023/03/15 06:08:25;;;;;;;18.05;8.00;;;;;;;-0.06;100.00;101484.34;5073598;28;20024;-65
2023/03/15 06:10:50;;;;;;;19.73;8.30;;;;;;;-0.05;100.00;101494.72;5073507;28;20399;-65
2023/03/15 06:13:16;;;;;;;19.20;8.75;;;;;;;-0.05;100.00;101494.72;5073421;28;20036;-65
2023/03/15 06:15:41;;;;;;;18.83;9.05;;;;;;;-0.03;100.00;101492.84;5073041;28;20083;-65
2023/03/15 06:18:07;;;;;;;19.63;8.90;;;;;;;0.00;100.00;101494.41;5073016;28;20170;-65
2023/03/15 06:20:32;;;;;;;23.20;10.18;;;;;;;-0.04;100.00;101491.16;5073226;28;20035;-66
2023/03/15 06:22:58;;;;;;;20.65;9.95;;;;;;;0.06;100.00;101504.44;5073244;28;20032;-66
2023/03/15 06:25:23;;;;;;;20.08;8.75;;;;;;;0.07;100.00;101507.88;5072963;28;20078;-65
2023/03/15 06:27:50;;;;;;;21.65;9.40;;;;;;;0.11;100.00;101515.44;5073252;28;20051;-66
2023/03/15 06:30:15;;;;;;;16.83;7.72;;;;;;;0.17;100.00;101522.00;5073132;28;20058;-66
2023/03/15 06:32:40;;;;;;;22.65;9.18;;;;;;;0.18;100.00;101511.41;5073168;28;20081;-65
2023/03/15 06:35:07;;;;;;;18.13;8.45;;;;;;;0.38;100.00;101530.06;5073084;28;20074;-65
2023/03/15 06:37:34;;;;;;;20.80;9.60;;;;;;;0.48;100.00;101536.31;5072943;28;20041;-66
2023/03/15 06:40:00;;;;;;;19.20;9.05;;;;;;;0.71;100.00;101544.25;5073010;28;20475;-66
2023/03/15 06:42:25;;;;;;;20.33;8.55;;;;;;;0.94;100.00;101548.59;5072885;28;20033;-66
2023/03/15 06:44:50;;;;;;;26.63;11.00;;;;;;;1.13;100.00;101547.19;5073023;28;20091;-66
2023/03/15 06:47:16;;;;;;;18.52;8.70;;;;;;;1.34;100.00;101557.81;5072656;28;20032;-65
2023/03/15 06:49:41;;;;;;;21.75;9.57;;;;;;;1.39;100.00;101551.28;5072688;28;20459;-66
2023/03/15 06:52:07;;;;;;;20.77;8.32;;;;;;;1.45;100.00;101556.03;5072612;28;20388;-66
2023/03/15 06:54:32;;;;;;;21.73;10.45;;;;;;;1.62;100.00;101559.97;5072492;28;20042;-66
2023/03/15 06:56:58;;;;;;;17.83;9.13;;;;;;;1.75;100.00;101563.31;5072489;28;20020;-65
2023/03/15 06:59:24;;;;;;;21.92;10.05;;;;;;;1.84;100.00;101577.53;5072561;28;20047;-65
2023/03/15 07:01:49;;;;;;;21.20;8.02;;;;;;;1.89;100.00;101570.13;5072763;28;20032;-65
2023/03/15 07:04:15;;;;;;;19.98;8.30;;;;;;;1.90;100.00;101574.41;5072377;28;20040;-65
2023/03/15 07:06:40;;;;;;;20.05;8.75;;;;;;;2.12;100.00;101583.19;5072412;28;20086;-65
2023/03/15 07:09:06;;;;;;;16.55;7.90;;;;;;;2.41;100.00;101591.38;5072453;28;20036;-65
2023/03/15 07:11:31;;;;;;;20.48;8.98;;;;;;;2.61;100.00;101598.47;5072314;28;20082;-65
2023/03/15 07:13:57;;;;;;;17.42;8.40;;;;;;;2.72;100.00;101599.38;5072050;28;20090;-65
2023/03/15 07:16:23;;;;;;;18.63;8.02;;;;;;;2.77;100.00;101589.31;5071425;28;20133;-65
2023/03/15 07:18:49;;;;;;;17.20;7.43;;;;;;;2.76;100.00;101600.81;5072000;28;20056;-65
2023/03/15 07:21:15;;;;;;;16.52;6.90;;;;;;;2.85;100.00;101607.94;5072197;28;20063;-65
2023/03/15 07:23:40;;;;;;;17.52;7.75;;;;;;;3.00;100.00;101617.22;5072125;28;20052;-65
2023/03/15 07:26:06;;;;;;;19.05;8.35;;;;;;;3.14;100.00;101625.75;5072122;28;20089;-65
2023/03/15 07:28:31;;;;;;;18.42;7.80;;;;;;;3.32;100.00;101634.75;5071938;28;20446;-65
2023/03/15 07:30:59;;;;;;;16.67;6.65;;;;;;;3.50;100.00;101627.06;5072022;28;20094;-65
2023/03/15 07:33:26;;;;;;;16.42;7.35;;;;;;;3.63;100.00;101627.69;5071969;28;20464;-65
2023/03/15 07:35:54;;;;;;;16.08;7.22;;;;;;;3.64;100.00;101633.78;5091029;28;20459;-65
2023/03/15 07:38:27;;;;;;;17.92;7.40;;;;;;;3.61;100.00;101639.34;5091116;28;20032;-65
2023/03/15 07:40:53;;;;;;;19.13;7.97;;;;;;;3.60;100.00;101635.88;5091107;28;20050;-65
2023/03/15 07:43:19;;;;;;;15.65;7.07;;;;;;;3.56;100.00;101639.72;5091411;28;20036;-66
2023/03/15 07:45:44;;;;;;;14.25;6.20;;;;;;;3.59;100.00;101649.19;5090864;28;20031;-65
2023/03/15 07:48:10;;;;;;;15.57;6.25;;;;;;;3.62;100.00;101649.78;5091138;28;20032;-65
2023/03/15 07:50:36;;;;;;;16.80;6.88;;;;;;;3.78;100.00;101661.66;5091232;28;20045;-65
2023/03/15 07:53:03;;;;;;;16.40;5.88;;;;;;;3.73;100.00;101664.66;5091080;28;20032;-65
2023/03/15 07:55:28;;;;;;;13.00;5.55;;;;;;;3.68;100.00;101665.06;5071475;28;20055;-65
2023/03/15 07:57:54;;;;;;;17.13;6.47;;;;;;;4.12;100.00;101667.47;5071473;28;20463;-65
2023/03/15 08:00:21;;;;;;;13.35;5.25;;;;;;;4.75;100.00;101670.63;5071453;28;20380;-65
2023/03/15 08:02:47;;;;;;;13.30;5.75;;;;;;;4.95;100.00;101671.50;5071398;28;20059;-65
2023/03/15 08:05:12;;;;;;;13.60;6.43;;;;;;;4.98;100.00;101684.41;5071572;28;20536;-65
2023/03/15 08:07:38;;;;;;;10.02;5.60;;;;;;;4.94;100.00;101674.25;5069894;28;20475;-65
2023/03/15 08:10:05;;;;;;;12.80;5.53;;;;;;;5.00;100.00;101679.84;5071396;28;20045;-65
2023/03/15 08:12:30;;;;;;;11.80;5.45;;;;;;;5.27;100.00;101694.16;5071384;28;20033;-65
2023/03/15 08:14:56;;;;;;;10.82;3.28;;;;;;;5.20;100.00;101704.44;5069917;28;21060;-64
2023/03/15 08:17:21;;;;;;;10.93;4.75;;;;;;;5.12;100.00;101709.59;5073304;28;20081;-64
2023/03/15 08:19:46;;;;;;;9.23;3.90;;;;;;;4.97;100.00;101716.28;5090623;28;20038;-64
2023/03/15 08:22:12;;;;;;;10.88;4.95;;;;;;;4.73;100.00;101717.50;5090495;28;20039;-64
2023/03/15 08:24:38;;;;;;;9.63;3.97;;;;;;;4.79;100.00;101724.91;5090411;28;20073;-64
2023/03/15 08:27:03;;;;;;;8.82;4.50;;;;;;;4.70;100.00;101715.13;5089896;28;20139;-64
2023/03/15 08:29:30;;;;;;;11.70;4.60;;;;;;;4.59;100.00;101712.63;5069968;28;20114;-63
2023/03/15 08:31:56;;;;;;;11.10;4.82;;;;;;;4.44;100.00;101721.91;5070780;28;20479;-64
2023/03/15 08:34:21;;;;;;;7.40;2.42;;;;;;;4.34;100.00;101727.13;5069354;28;20033;-64
2023/03/15 08:36:48;;;;;;;10.02;3.80;;;;;;;4.28;100.00;101727.69;5069678;28;20025;-64
2023/03/15 08:39:13;;;;;;;10.00;2.83;;;;;;;4.18;100.00;101727.63;5069282;28;20060;-64
2023/03/15 08:41:39;;;;;;;9.88;3.50;;;;;;;4.19;100.00;101737.22;5070579;28;20103;-64
2023/03/15 08:44:05;;;;;;;9.20;3.15;;;;;;;4.20;100.00;101727.53;5070216;28;21081;-64
2023/03/15 08:46:31;;;;;;;9.60;3.63;;;;;;;4.28;100.00;101736.44;5070522;28;20020;-64
2023/03/15 08:48:57;;;;;;;10.73;3.38;;;;;;;4.25;100.00;101741.16;5070487;28;20024;-64
2023/03/15 08:51:24;;;;;;;9.18;3.40;;;;;;;4.28;100.00;101739.06;5070398;28;20036;-64
2023/03/15 08:53:50;;;;;;;7.57;3.50;;;;;;;4.38;100.00;101744.41;5070473;28;20025;-63
2023/03/15 08:56:16;;;;;;;10.13;2.80;;;;;;;4.42;100.00;101750.25;5089622;28;20024;-70
2023/03/15 08:58:41;;;;;;;5.47;2.45;;;;;;;4.51;100.00;101747.63;5089705;28;20089;-70
2023/03/15 09:01:07;;;;;;;7.80;2.78;;;;;;;4.61;100.00;101752.94;5089742;28;20630;-69
2023/03/15 09:03:33;;;;;;;9.07;3.50;;;;;;;4.63;100.00;101758.91;5089821;28;20055;-68
2023/03/15 09:05:58;;;;;;;11.43;2.58;;;;;;;4.68;100.00;101767.28;5089627;28;20060;-70
2023/03/15 09:08:25;;;;;;;5.38;2.85;;;;;;;4.81;100.00;101756.44;5089344;28;20100;-69
2023/03/15 09:10:55;;;;;;;8.07;3.17;;;;;;;4.91;100.00;101762.59;5089445;28;20467;-70
2023/03/15 09:13:20;;;;;;;6.68;2.40;;;;;;;4.92;100.00;101758.13;5089283;28;20028;-68
2023/03/15 09:15:48;;;;;;;7.47;2.78;;;;;;;4.92;100.00;101755.50;5078602;28;20033;-69
2023/03/15 09:18:14;;;;;;;5.45;2.55;;;;;;;5.02;100.00;101764.28;5069685;28;20057;-71
2023/03/15 09:20:40;;;;;;;17.70;3.42;;;;;;;5.10;100.00;101761.78;5069939;28;20047;-69
2023/03/15 09:23:05;;;;;;;5.95;2.42;;;;;;;5.15;99.28;101761.38;5068612;28;20028;-72
2023/03/15 09:25:30;;;;;;;8.18;2.85;;;;;;;5.14;97.90;101768.47;5069927;28;20028;-72
2023/03/15 09:27:56;;;;;;;4.35;2.08;;;;;;;5.17;95.68;101756.78;5083478;28;20119;-73
2023/03/15 09:30:21;;;;;;;7.72;2.70;;;;;;;5.21;96.91;101752.88;5089566;28;20051;-72
2023/03/15 09:32:47;;;;;;;13.27;3.67;;;;;;;5.35;97.53;101760.41;5089058;28;20378;-70
2023/03/15 09:35:15;;;;;;;10.43;2.38;;;;;;;5.42;95.25;101760.66;5080877;28;20040;-68
2023/03/15 09:37:41;;;;;;;4.78;2.10;;;;;;;5.46;95.39;101762.88;5075261;28;20111;-72
2023/03/15 09:40:16;;;;;;;8.93;2.30;;;;;;;5.52;93.34;101755.38;5070247;28;20543;-70
2023/03/15 09:42:57;;;;;;;6.20;2.05;;;;;;;5.68;94.13;101769.66;5087873;28;20032;-65
2023/03/15 09:45:54;;;;;;;8.25;2.17;;;;;;;5.84;94.08;101763.81;5089204;28;20226;-65
2023/03/15 09:48:31;;;;;;;6.72;1.85;;;;;;;5.94;92.91;101771.75;5068494;28;20123;-66
2023/03/15 09:51:11;;;;;;;5.57;2.53;;;;;;;6.02;90.89;101769.22;5088635;28;20032;-65
2023/03/15 09:53:49;;;;;;;6.00;1.48;;;;;;;6.18;91.07;101770.41;5088854;28;20506;-66
2023/03/15 09:56:23;;;;;;;8.40;2.08;;;;;;;6.45;92.10;101772.28;5088681;28;20028;-64
2023/03/15 09:58:51;;;;;;;3.60;1.67;;;;;;;6.62;88.80;101776.78;5088920;28;20381;-65
2023/03/15 10:01:21;;;;;;;4.85;1.60;;;;;;;6.88;90.21;101778.72;5088722;28;20096;-65
2023/03/15 10:03:49;;;;;;;9.85;2.53;;;;;;;6.97;83.91;101785.78;5088705;28;20076;-65
2023/03/15 10:06:26;;;;;;;4.55;1.50;;;;;;;7.09;85.41;101778.44;5088761;28;20486;-66
2023/03/15 10:09:03;;;;;;;8.90;2.72;;;;;;;7.20;86.23;101770.25;5089083;28;20035;-66
2023/03/15 10:11:32;;;;;;;9.73;1.35;;;;;;;7.39;82.21;101780.72;5088674;28;20055;-66
2023/03/15 10:14:16;;;;;;;4.72;1.75;;;;;;;7.53;82.20;101779.34;5088456;28;20068;-65
2023/03/15 10:16:46;;;;;;;9.63;1.50;;;;;;;7.67;86.28;101770.81;5088584;28;20038;-65
2023/03/15 10:19:16;;;;;;;8.88;2.85;;;;;;;7.65;83.60;101779.91;5088231;28;20048;-65
2023/03/15 10:22:09;;;;;;;7.75;3.25;;;;;;;7.47;82.56;101772.00;5088483;28;20050;-65
2023/03/15 10:24:58;;;;;;;7.80;1.88;;;;;;;7.24;79.50;101784.88;5069283;28;20476;-65
2023/03/15 10:27:44;;;;;;;6.82;1.30;;;;;;;7.13;81.97;101788.59;5088651;28;20119;-66
2023/03/15 10:30:20;;;;;;;6.18;1.10;;;;;;;7.38;83.22;101787.00;5079207;28;20032;-65
2023/03/15 10:32:51;;;;;;;5.55;1.38;;;;;;;7.74;82.25;101780.81;5069373;28;20036;-64
2023/03/15 10:35:18;;;;;;;9.65;1.60;;;;;;;8.10;77.87;101778.91;5087735;28;20028;-65
2023/03/15 10:37:44;;;;;;;9.45;2.28;;;;;;;8.24;76.25;101786.28;5086929;28;20047;-65
2023/03/15 10:40:15;;;;;;;6.20;1.95;;;;;;;8.35;77.75;101793.13;5088403;28;20036;-66
2023/03/15 10:42:45;;;;;;;6.78;1.65;;;;;;;8.27;75.35;101790.44;5086982;28;20028;-66
2023/03/15 10:45:21;;;;;;;6.38;1.70;;;;;;;7.93;70.97;101783.25;5088237;28;20138;-65
2023/03/15 10:47:47;;;;;;;6.82;1.58;;;;;;;7.70;75.64;101788.25;5088214;28;20020;-65
2023/03/15 10:50:25;;;;;;;8.90;1.70;;;;;;;7.52;72.85;101787.44;5087120;28;20028;-65
2023/03/15 10:52:54;;;;;;;4.95;1.30;;;;;;;7.34;75.42;101798.91;5091732;28;20353;-65
2023/03/15 10:55:30;;;;;;;5.32;1.40;;;;;;;7.28;74.78;101798.69;5090609;28;20024;-65
2023/03/15 10:58:01;;;;;;;6.55;1.65;;;;;;;7.20;71.45;101800.28;5092103;28;20032;-65
2023/03/15 11:00:35;;;;;;;5.43;1.33;;;;;;;7.28;67.15;101803.97;5091925;28;20039;-65
2023/03/15 11:03:18;;;;;;;5.55;1.55;;;;;;;7.30;68.17;101808.16;5091781;28;20035;-65
2023/03/15 11:05:48;;;;;;;5.15;1.98;;;;;;;7.59;73.95;101807.91;5091876;28;20028;-65
2023/03/15 11:08:16;;;;;;;5.38;2.15;;;;;;;7.76;70.17;101814.19;5091790;28;20032;-65
2023/03/15 11:10:43;;;;;;;7.70;1.98;;;;;;;7.88;68.96;101812.94;5091622;28;20032;-65
2023/03/15 11:13:19;;;;;;;3.58;2.08;;;;;;;8.03;70.98;101818.53;5091677;28;20032;-65
2023/03/15 11:16:03;;;;;;;7.47;1.27;;;;;;;8.15;70.84;101819.13;5091573;28;20069;-65
2023/03/15 11:18:44;;;;;;;3.25;1.30;;;;;;;8.16;67.14;101820.78;5091391;28;20487;-65
2023/03/15 11:21:13;;;;;;;7.35;1.67;;;;;;;8.24;71.01;101818.16;5091416;28;20038;-65
2023/03/15 11:23:42;;;;;;;6.57;1.63;;;;;;;8.24;65.69;101827.97;5090278;28;20482;-65